sensor_id;sensor_type;location;lat;lon;timestamp;pressure;altitude;pressure_sealevel;temperature;humidity
19624;BME280;9959;49.798;9.928;2024-03-22T00:01:48;100338.50;;;7.21;100.00
19624;BME280;9959;49.798;9.928;2024-03-22T00:04:15;100338.75;;;7.03;100.00
19624;BME280;9959;49.798;9.928;2024-03-22T00:06:42;100337.44;;;6.99;100.00
19624;BME280;9959;49.798;9.928;2024-03-22T00:09:09;100332.41;;;6.96;100.00
19624;BME280;9959;49.798;9.928;2024-03-22T00:11:35;100327.72;;;6.98;100.00
19624;BME280;9959;49.798;9.928;2024-03-22T00:14:02;100331.72;;;7.02;100.00
19624;BME280;9959;49.798;9.928;2024-03-22T00:16:28;100319.50;;;7.08;100.00
19624;BME280;9959;49.798;9.928;2024-03-22T00:18:57;100322.00;;;7.09;100.00
19624;BME280;9959;49.798;9.928;2024-03-22T00:21:23;100313.66;;;6.88;100.00
19624;BME280;9959;49.798;9.928;2024-03-22T00:23:49;100304.53;;;7.13;100.00
19624;BME280;9959;49.798;9.928;2024-03-22T00:26:15;100311.72;;;7.21;100.00
19624;BME280;9959;49.798;9.928;2024-03-22T00:28:41;100314.56;;;7.28;100.00
19624;BME280;9959;49.798;9.928;2024-03-22T00:31:07;100310.56;;;7.16;100.00
19624;BME280;9959;49.798;9.928;2024-03-22T00:33:33;100300.91;;;7.06;100.00
19624;BME280;9959;49.798;9.928;2024-03-22T00:35:59;100297.94;;;6.85;100.00
19624;BME280;9959;49.798;9.928;2024-03-22T00:38:25;100290.97;;;6.76;100.00
19624;BME280;9959;49.798;9.928;2024-03-22T00:40:50;100291.50;;;6.55;100.00
19624;BME280;9959;49.798;9.928;2024-03-22T00:43:17;100283.66;;;6.54;100.00
19624;BME280;9959;49.798;9.928;2024-03-22T00:45:42;100284.31;;;6.31;100.00
19624;BME280;9959;49.798;9.928;2024-03-22T00:48:08;100285.66;;;6.35;100.00
19624;BME280;9959;49.798;9.928;2024-03-22T00:50:34;100281.34;;;6.26;100.00
19624;BME280;9959;49.798;9.928;2024-03-22T00:53:00;100279.63;;;6.33;100.00
19624;BME280;9959;49.798;9.928;2024-03-22T00:55:27;100281.16;;;6.36;100.00
19624;BME280;9959;49.798;9.928;2024-03-22T00:57:53;100270.63;;;6.26;100.00
19624;BME280;9959;49.798;9.928;2024-03-22T01:00:20;100274.31;;;6.17;100.00
19624;BME280;9959;49.798;9.928;2024-03-22T01:02:46;100275.81;;;6.03;100.00
19624;BME280;9959;49.798;9.928;2024-03-22T01:05:12;100265.28;;;6.10;100.00
19624;BME280;9959;49.798;9.928;2024-03-22T01:07:37;100260.13;;;6.00;100.00
19624;BME280;9959;49.798;9.928;2024-03-22T01:10:04;100265.94;;;6.12;100.00
19624;BME280;9959;49.798;9.928;2024-03-22T01:12:30;100269.66;;;5.95;100.00
19624;BME280;9959;49.798;9.928;2024-03-22T01:14:57;100260.94;;;6.09;100.00
19624;BME280;9959;49.798;9.928;2024-03-22T01:17:23;100263.94;;;6.06;100.00
19624;BME280;9959;49.798;9.928;2024-03-22T01:19:49;100263.59;;;6.09;100.00
19624;BME280;9959;49.798;9.928;2024-03-22T01:22:16;100261.97;;;6.00;100.00
19624;BME280;9959;49.798;9.928;2024-03-22T01:24:43;100260.78;;;5.94;100.00
19624;BME280;9959;49.798;9.928;2024-03-22T01:27:09;100266.81;;;5.96;100.00
19624;BME280;9959;49.798;9.928;2024-03-22T01:29:35;100267.25;;;5.84;100.00
19624;BME280;9959;49.798;9.928;2024-03-22T01:32:02;100256.22;;;5.78;100.00
19624;BME280;9959;49.798;9.928;2024-03-22T01:34:28;100254.88;;;5.74;100.00
19624;BME280;9959;49.798;9.928;2024-03-22T01:36:54;100257.22;;;5.69;100.00
19624;BME280;9959;49.798;9.928;2024-03-22T01:39:20;100249.19;;;5.77;100.00
19624;BME280;9959;49.798;9.928;2024-03-22T01:41:47;100251.19;;;5.75;100.00
19624;BME280;9959;49.798;9.928;2024-03-22T01:44:13;100247.34;;;5.78;100.00
19624;BME280;9959;49.798;9.928;2024-03-22T01:46:40;100238.81;;;5.58;100.00
19624;BME280;9959;49.798;9.928;2024-03-22T01:49:08;100236.16;;;5.83;100.00
19624;BME280;9959;49.798;9.928;2024-03-22T01:51:35;100238.81;;;5.58;100.00
19624;BME280;9959;49.798;9.928;2024-03-22T01:54:02;100238.97;;;5.49;100.00
19624;BME280;9959;49.798;9.928;2024-03-22T01:56:29;100227.16;;;5.67;100.00
19624;BME280;9959;49.798;9.928;2024-03-22T01:58:56;100229.81;;;5.75;100.00
19624;BME280;9959;49.798;9.928;2024-03-22T02:01:23;100228.13;;;5.58;100.00
19624;BME280;9959;49.798;9.928;2024-03-22T02:03:49;100225.78;;;5.47;100.00
19624;BME280;9959;49.798;9.928;2024-03-22T02:06:15;100228.31;;;5.57;100.00
19624;BME280;9959;49.798;9.928;2024-03-22T02:08:41;100221.13;;;5.57;100.00
19624;BME280;9959;49.798;9.928;2024-03-22T02:11:08;100216.25;;;5.53;100.00
19624;BME280;9959;49.798;9.928;2024-03-22T02:13:34;100214.44;;;5.61;100.00
19624;BME280;9959;49.798;9.928;2024-03-22T02:16:04;100204.25;;;5.57;100.00
19624;BME280;9959;49.798;9.928;2024-03-22T02:18:30;100207.78;;;5.65;100.00
19624;BME280;9959;49.798;9.928;2024-03-22T02:20:56;100204.91;;;5.42;100.00
19624;BME280;9959;49.798;9.928;2024-03-22T02:23:32;100196.06;;;5.42;100.00
19624;BME280;9959;49.798;9.928;2024-03-22T02:25:58;100199.41;;;5.44;100.00
19624;BME280;9959;49.798;9.928;2024-03-22T02:28:24;100212.75;;;5.36;100.00
19624;BME280;9959;49.798;9.928;2024-03-22T02:30:50;100200.19;;;5.28;100.00
19624;BME280;9959;49.798;9.928;2024-03-22T02:33:16;100201.38;;;5.18;100.00
19624;BME280;9959;49.798;9.928;2024-03-22T02:35:42;100191.94;;;4.97;100.00
19624;BME280;9959;49.798;9.928;2024-03-22T02:38:07;100195.19;;;5.17;100.00
19624;BME280;9959;49.798;9.928;2024-03-22T02:40:33;100198.00;;;5.07;100.00
19624;BME280;9959;49.798;9.928;2024-03-22T02:42:59;100193.94;;;4.95;100.00
19624;BME280;9959;49.798;9.928;2024-03-22T02:45:25;100198.97;;;4.98;100.00
19624;BME280;9959;49.798;9.928;2024-03-22T02:47:50;100195.47;;;5.06;100.00
19624;BME280;9959;49.798;9.928;2024-03-22T02:50:16;100191.28;;;4.95;100.00
19624;BME280;9959;49.798;9.928;2024-03-22T02:52:42;100187.16;;;5.09;100.00
19624;BME280;9959;49.798;9.928;2024-03-22T02:55:08;100184.34;;;5.19;100.00
19624;BME280;9959;49.798;9.928;2024-03-22T02:57:33;100179.31;;;5.16;100.00
19624;BME280;9959;49.798;9.928;2024-03-22T03:00:03;100182.63;;;5.01;100.00
19624;BME280;9959;49.798;9.928;2024-03-22T03:02:30;100182.28;;;5.04;100.00
19624;BME280;9959;49.798;9.928;2024-03-22T03:04:56;100186.75;;;4.96;100.00
19624;BME280;9959;49.798;9.928;2024-03-22T03:07:24;100178.88;;;4.78;100.00
19624;BME280;9959;49.798;9.928;2024-03-22T03:09:50;100178.91;;;4.86;100.00
19624;BME280;9959;49.798;9.928;2024-03-22T03:12:16;100188.13;;;4.92;100.00
19624;BME280;9959;49.798;9.928;2024-03-22T03:14:42;100184.69;;;4.73;100.00
19624;BME280;9959;49.798;9.928;2024-03-22T03:17:08;100180.56;;;4.79;100.00
19624;BME280;9959;49.798;9.928;2024-03-22T03:19:34;100179.72;;;4.79;100.00
19624;BME280;9959;49.798;9.928;2024-03-22T03:21:59;100183.97;;;4.55;100.00
19624;BME280;9959;49.798;9.928;2024-03-22T03:24:25;100174.84;;;4.74;100.00
19624;BME280;9959;49.798;9.928;2024-03-22T03:26:51;100179.84;;;4.69;100.00
19624;BME280;9959;49.798;9.928;2024-03-22T03:29:17;100172.50;;;4.71;100.00
19624;BME280;9959;49.798;9.928;2024-03-22T03:31:43;100172.88;;;4.76;100.00
19624;BME280;9959;49.798;9.928;2024-03-22T03:34:08;100169.88;;;4.79;100.00
19624;BME280;9959;49.798;9.928;2024-03-22T03:36:34;100169.31;;;4.67;100.00
19624;BME280;9959;49.798;9.928;2024-03-22T03:39:00;100168.31;;;4.60;100.00
19624;BME280;9959;49.798;9.928;2024-03-22T03:41:26;100170.78;;;4.54;100.00
19624;BME280;9959;49.798;9.928;2024-03-22T03:43:52;100170.72;;;4.46;100.00
19624;BME280;9959;49.798;9.928;2024-03-22T03:46:17;100177.38;;;4.41;100.00
19624;BME280;9959;49.798;9.928;2024-03-22T03:48:43;100178.81;;;4.62;100.00
19624;BME280;9959;49.798;9.928;2024-03-22T03:51:09;100181.41;;;4.46;100.00
19624;BME280;9959;49.798;9.928;2024-03-22T03:53:35;100186.47;;;4.57;100.00
19624;BME280;9959;49.798;9.928;2024-03-22T03:56:01;100185.91;;;4.45;100.00
19624;BME280;9959;49.798;9.928;2024-03-22T03:58:27;100180.28;;;4.22;100.00
19624;BME280;9959;49.798;9.928;2024-03-22T04:00:52;100183.09;;;4.21;100.00
19624;BME280;9959;49.798;9.928;2024-03-22T04:03:18;100177.63;;;4.22;100.00
19624;BME280;9959;49.798;9.928;2024-03-22T04:05:44;100180.88;;;4.42;100.00
19624;BME280;9959;49.798;9.928;2024-03-22T04:08:10;100183.31;;;4.27;100.00
19624;BME280;9959;49.798;9.928;2024-03-22T04:10:38;100179.66;;;4.28;100.00
19624;BME280;9959;49.798;9.928;2024-03-22T04:13:04;100176.38;;;4.34;100.00
19624;BME280;9959;49.798;9.928;2024-03-22T04:15:34;100173.38;;;4.37;100.00
19624;BME280;9959;49.798;9.928;2024-03-22T04:18:00;100181.53;;;4.36;100.00
19624;BME280;9959;49.798;9.928;2024-03-22T04:20:25;100176.59;;;4.49;100.00
19624;BME280;9959;49.798;9.928;2024-03-22T04:22:51;100178.56;;;4.47;100.00
19624;BME280;9959;49.798;9.928;2024-03-22T04:25:18;100181.41;;;4.46;100.00
19624;BME280;9959;49.798;9.928;2024-03-22T04:27:44;100172.84;;;4.34;100.00
19624;BME280;9959;49.798;9.928;2024-03-22T04:30:10;100169.38;;;4.41;100.00
19624;BME280;9959;49.798;9.928;2024-03-22T04:32:36;100160.69;;;4.39;100.00
19624;BME280;9959;49.798;9.928;2024-03-22T04:35:03;100172.66;;;4.27;100.00
19624;BME280;9959;49.798;9.928;2024-03-22T04:37:29;100170.31;;;4.24;100.00
19624;BME280;9959;49.798;9.928;2024-03-22T04:39:55;100161.03;;;4.36;100.00
19624;BME280;9959;49.798;9.928;2024-03-22T04:42:20;100159.00;;;4.30;100.00
19624;BME280;9959;49.798;9.928;2024-03-22T04:44:46;100159.69;;;4.32;100.00
19624;BME280;9959;49.798;9.928;2024-03-22T04:47:12;100158.59;;;4.17;100.00
19624;BME280;9959;49.798;9.928;2024-03-22T04:49:38;100157.22;;;4.13;100.00
19624;BME280;9959;49.798;9.928;2024-03-22T04:52:04;100154.31;;;4.24;100.00
19624;BME280;9959;49.798;9.928;2024-03-22T04:54:30;100149.22;;;4.13;100.00
19624;BME280;9959;49.798;9.928;2024-03-22T04:56:56;100152.22;;;4.10;100.00
19624;BME280;9959;49.798;9.928;2024-03-22T04:59:22;100153.94;;;4.19;100.00
19624;BME280;9959;49.798;9.928;2024-03-22T05:01:48;100153.22;;;4.09;100.00
19624;BME280;9959;49.798;9.928;2024-03-22T05:04:14;100139.31;;;3.97;100.00
19624;BME280;9959;49.798;9.928;2024-03-22T05:06:39;100135.88;;;4.05;100.00
19624;BME280;9959;49.798;9.928;2024-03-22T05:09:05;100141.81;;;3.99;100.00
19624;BME280;9959;49.798;9.928;2024-03-22T05:11:32;100138.53;;;4.05;100.00
19624;BME280;9959;49.798;9.928;2024-03-22T05:13:58;100139.53;;;4.04;100.00
19624;BME280;9959;49.798;9.928;2024-03-22T05:16:24;100138.31;;;3.98;100.00
19624;BME280;9959;49.798;9.928;2024-03-22T05:18:49;100130.69;;;4.03;100.00
19624;BME280;9959;49.798;9.928;2024-03-22T05:21:15;100130.09;;;3.92;100.00
19624;BME280;9959;49.798;9.928;2024-03-22T05:23:41;100128.34;;;4.00;100.00
19624;BME280;9959;49.798;9.928;2024-03-22T05:26:07;100129.19;;;4.01;100.00
19624;BME280;9959;49.798;9.928;2024-03-22T05:28:33;100130.09;;;3.92;100.00
19624;BME280;9959;49.798;9.928;2024-03-22T05:30:59;100127.22;;;3.85;100.00
19624;BME280;9959;49.798;9.928;2024-03-22T05:33:24;100138.63;;;3.95;100.00
19624;BME280;9959;49.798;9.928;2024-03-22T05:35:50;100137.63;;;3.96;100.00
19624;BME280;9959;49.798;9.928;2024-03-22T05:38:17;100142.03;;;4.05;100.00
19624;BME280;9959;49.798;9.928;2024-03-22T05:40:43;100130.38;;;4.06;100.00
19624;BME280;9959;49.798;9.928;2024-03-22T05:43:11;100139.56;;;4.12;100.00
19624;BME280;9959;49.798;9.928;2024-03-22T05:45:36;100129.88;;;4.11;100.00
19624;BME280;9959;49.798;9.928;2024-03-22T05:48:03;100131.69;;;4.02;100.00
19624;BME280;9959;49.798;9.928;2024-03-22T05:50:29;100123.72;;;3.85;100.00
19624;BME280;9959;49.798;9.928;2024-03-22T05:52:58;100127.13;;;3.95;100.00
19624;BME280;9959;49.798;9.928;2024-03-22T05:55:24;100115.91;;;4.09;100.00
19624;BME280;9959;49.798;9.928;2024-03-22T05:57:52;100113.25;;;4.17;100.00
19624;BME280;9959;49.798;9.928;2024-03-22T06:00:18;100104.34;;;4.34;100.00
19624;BME280;9959;49.798;9.928;2024-03-22T06:02:44;100113.81;;;3.95;100.00
19624;BME280;9959;49.798;9.928;2024-03-22T06:05:10;100105.13;;;3.93;100.00
19624;BME280;9959;49.798;9.928;2024-03-22T06:07:36;100106.56;;;4.13;100.00
19624;BME280;9959;49.798;9.928;2024-03-22T06:10:08;100110.00;;;4.39;100.00
19624;BME280;9959;49.798;9.928;2024-03-22T06:12:37;100112.16;;;4.28;100.00
19624;BME280;9959;49.798;9.928;2024-03-22T06:15:04;100098.94;;;4.18;100.00
19624;BME280;9959;49.798;9.928;2024-03-22T06:17:34;100100.00;;;4.33;100.00
19624;BME280;9959;49.798;9.928;2024-03-22T06:20:00;100096.84;;;4.38;100.00
19624;BME280;9959;49.798;9.928;2024-03-22T06:22:26;100097.19;;;4.43;100.00
19624;BME280;9959;49.798;9.928;2024-03-22T06:24:53;100093.13;;;4.73;100.00
19624;BME280;9959;49.798;9.928;2024-03-22T06:27:19;100095.44;;;4.68;100.00
19624;BME280;9959;49.798;9.928;2024-03-22T06:29:47;100086.09;;;4.72;100.00
19624;BME280;9959;49.798;9.928;2024-03-22T06:32:13;100080.81;;;4.88;100.00
19624;BME280;9959;49.798;9.928;2024-03-22T06:34:39;100085.47;;;4.86;100.00
19624;BME280;9959;49.798;9.928;2024-03-22T06:37:05;100080.13;;;4.78;100.00
19624;BME280;9959;49.798;9.928;2024-03-22T06:39:31;100085.13;;;4.81;100.00
19624;BME280;9959;49.798;9.928;2024-03-22T06:41:57;100067.59;;;4.79;100.00
19624;BME280;9959;49.798;9.928;2024-03-22T06:44:23;100078.97;;;4.97;100.00
19624;BME280;9959;49.798;9.928;2024-03-22T06:46:48;100076.91;;;4.66;100.00
19624;BME280;9959;49.798;9.928;2024-03-22T06:49:14;100077.47;;;4.86;100.00
19624;BME280;9959;49.798;9.928;2024-03-22T06:51:40;100081.25;;;4.59;100.00
19624;BME280;9959;49.798;9.928;2024-03-22T06:54:05;100074.81;;;4.86;100.00
19624;BME280;9959;49.798;9.928;2024-03-22T06:56:31;100079.81;;;4.97;100.00
19624;BME280;9959;49.798;9.928;2024-03-22T06:58:57;100066.13;;;5.33;100.00
19624;BME280;9959;49.798;9.928;2024-03-22T07:01:24;100060.63;;;5.02;100.00
19624;BME280;9959;49.798;9.928;2024-03-22T07:03:49;100066.81;;;5.02;100.00
19624;BME280;9959;49.798;9.928;2024-03-22T07:06:16;100050.75;;;4.70;100.00
19624;BME280;9959;49.798;9.928;2024-03-22T07:08:41;100046.44;;;4.93;100.00
19624;BME280;9959;49.798;9.928;2024-03-22T07:11:07;100052.41;;;5.68;100.00
19624;BME280;9959;49.798;9.928;2024-03-22T07:13:34;100042.91;;;6.21;100.00
19624;BME280;9959;49.798;9.928;2024-03-22T07:16:00;100044.59;;;6.53;98.39
19624;BME280;9959;49.798;9.928;2024-03-22T07:18:26;100040.91;;;6.77;95.91
19624;BME280;9959;49.798;9.928;2024-03-22T07:20:52;100048.06;;;7.07;94.05
19624;BME280;9959;49.798;9.928;2024-03-22T07:23:18;100038.72;;;7.41;90.44
19624;BME280;9959;49.798;9.928;2024-03-22T07:25:44;100041.88;;;7.44;87.55
19624;BME280;9959;49.798;9.928;2024-03-22T07:28:11;100041.97;;;7.51;90.56
19624;BME280;9959;49.798;9.928;2024-03-22T07:30:37;100043.97;;;8.01;87.73
19624;BME280;9959;49.798;9.928;2024-03-22T07:33:03;100039.59;;;8.30;82.66
19624;BME280;9959;49.798;9.928;2024-03-22T07:35:29;100043.84;;;8.24;83.20
19624;BME280;9959;49.798;9.928;2024-03-22T07:37:56;100038.13;;;8.99;81.13
19624;BME280;9959;49.798;9.928;2024-03-22T07:40:22;100025.16;;;9.31;78.62
19624;BME280;9959;49.798;9.928;2024-03-22T07:42:48;100033.16;;;9.73;76.79
19624;BME280;9959;49.798;9.928;2024-03-22T07:45:14;100027.28;;;9.98;74.68
19624;BME280;9959;49.798;9.928;2024-03-22T07:47:40;100033.53;;;8.93;78.07
19624;BME280;9959;49.798;9.928;2024-03-22T07:50:08;100022.25;;;9.81;76.72
19624;BME280;9959;49.798;9.928;2024-03-22T07:52:34;100032.00;;;9.61;77.34
19624;BME280;9959;49.798;9.928;2024-03-22T07:55:00;100021.94;;;10.45;72.25
19624;BME280;9959;49.798;9.928;2024-03-22T07:57:29;100022.91;;;10.92;71.10
19624;BME280;9959;49.798;9.928;2024-03-22T07:59:57;100024.94;;;9.88;73.67
19624;BME280;9959;49.798;9.928;2024-03-22T08:02:23;100024.03;;;9.74;74.50
19624;BME280;9959;49.798;9.928;2024-03-22T08:04:49;100025.56;;;9.90;75.50
19624;BME280;9959;49.798;9.928;2024-03-22T08:07:15;100020.50;;;10.49;72.17
19624;BME280;9959;49.798;9.928;2024-03-22T08:09:41;100010.28;;;11.12;70.36
19624;BME280;9959;49.798;9.928;2024-03-22T08:12:07;100012.25;;;10.58;71.44
19624;BME280;9959;49.798;9.928;2024-03-22T08:14:33;100018.28;;;10.60;71.40
19624;BME280;9959;49.798;9.928;2024-03-22T08:16:59;100004.06;;;11.18;69.07
19624;BME280;9959;49.798;9.928;2024-03-22T08:19:25;99991.59;;;11.24;68.77
19624;BME280;9959;49.798;9.928;2024-03-22T08:21:51;99995.56;;;11.41;68.67
19624;BME280;9959;49.798;9.928;2024-03-22T08:24:19;99988.25;;;11.62;67.66
19624;BME280;9959;49.798;9.928;2024-03-22T08:26:45;99990.00;;;12.59;64.59
19624;BME280;9959;49.798;9.928;2024-03-22T08:29:13;99988.72;;;12.99;62.79
19624;BME280;9959;49.798;9.928;2024-03-22T08:31:40;99989.25;;;13.64;60.93
19624;BME280;9959;49.798;9.928;2024-03-22T08:34:08;99991.41;;;13.74;59.74
19624;BME280;9959;49.798;9.928;2024-03-22T08:36:34;99978.94;;;14.09;58.59
19624;BME280;9959;49.798;9.928;2024-03-22T08:39:00;99986.25;;;14.45;57.66
19624;BME280;9959;49.798;9.928;2024-03-22T08:41:26;99972.59;;;14.34;58.61
19624;BME280;9959;49.798;9.928;2024-03-22T08:43:52;99973.38;;;14.71;58.33
19624;BME280;9959;49.798;9.928;2024-03-22T08:46:18;99975.50;;;15.22;57.05
19624;BME280;9959;49.798;9.928;2024-03-22T08:48:47;99971.03;;;15.39;56.41
19624;BME280;9959;49.798;9.928;2024-03-22T08:51:13;99964.88;;;16.02;53.17
19624;BME280;9959;49.798;9.928;2024-03-22T08:53:39;99964.19;;;15.25;55.66
19624;BME280;9959;49.798;9.928;2024-03-22T08:56:05;99968.44;;;14.79;56.73
19624;BME280;9959;49.798;9.928;2024-03-22T08:58:31;99964.81;;;15.62;55.06
19624;BME280;9959;49.798;9.928;2024-03-22T09:00:57;99960.91;;;16.33;53.69
19624;BME280;9959;49.798;9.928;2024-03-22T09:03:23;99954.84;;;16.03;54.47
19624;BME280;9959;49.798;9.928;2024-03-22T09:05:52;99943.09;;;16.14;54.15
19624;BME280;9959;49.798;9.928;2024-03-22T09:08:20;99945.84;;;16.42;53.67
19624;BME280;9959;49.798;9.928;2024-03-22T09:10:47;99930.41;;;17.05;51.19
19624;BME280;9959;49.798;9.928;2024-03-22T09:13:14;99929.41;;;17.27;50.24
19624;BME280;9959;49.798;9.928;2024-03-22T09:15:40;99940.34;;;16.54;50.97
19624;BME280;9959;49.798;9.928;2024-03-22T09:18:06;99931.34;;;18.04;48.48
19624;BME280;9959;49.798;9.928;2024-03-22T09:20:33;99921.22;;;16.77;51.00
19624;BME280;9959;49.798;9.928;2024-03-22T09:22:59;99916.50;;;17.73;48.79
19624;BME280;9959;49.798;9.928;2024-03-22T09:25:25;99916.84;;;17.26;49.04
19624;BME280;9959;49.798;9.928;2024-03-22T09:27:51;99916.28;;;17.24;49.18
19624;BME280;9959;49.798;9.928;2024-03-22T09:30:16;99902.78;;;17.90;47.62
19624;BME280;9959;49.798;9.928;2024-03-22T09:32:42;99908.06;;;17.58;48.77
19624;BME280;9959;49.798;9.928;2024-03-22T09:35:08;99903.47;;;17.42;48.78
19624;BME280;9959;49.798;9.928;2024-03-22T09:37:35;99895.94;;;18.31;47.06
19624;BME280;9959;49.798;9.928;2024-03-22T09:40:01;99885.91;;;18.15;46.73
19624;BME280;9959;49.798;9.928;2024-03-22T09:42:33;99885.75;;;16.72;49.91
19624;BME280;9959;49.798;9.928;2024-03-22T09:44:59;99882.88;;;17.51;48.85
19624;BME280;9959;49.798;9.928;2024-03-22T09:47:25;99878.34;;;17.73;48.58
19624;BME280;9959;49.798;9.928;2024-03-22T09:49:52;99874.31;;;17.20;48.92
19624;BME280;9959;49.798;9.928;2024-03-22T09:52:19;99871.91;;;17.07;49.94
19624;BME280;9959;49.798;9.928;2024-03-22T09:54:46;99868.81;;;17.98;48.00
19624;BME280;9959;49.798;9.928;2024-03-22T09:57:15;99866.28;;;17.52;48.78
19624;BME280;9959;49.798;9.928;2024-03-22T09:59:47;99868.47;;;16.95;49.83
19624;BME280;9959;49.798;9.928;2024-03-22T10:02:13;99851.53;;;17.10;49.04
19624;BME280;9959;49.798;9.928;2024-03-22T10:04:43;99860.56;;;16.48;50.22
19624;BME280;9959;49.798;9.928;2024-03-22T10:07:09;99855.31;;;16.58;50.55
19624;BME280;9959;49.798;9.928;2024-03-22T10:09:36;99851.22;;;15.99;51.71
19624;BME280;9959;49.798;9.928;2024-03-22T10:12:03;99841.81;;;16.80;49.90
19624;BME280;9959;49.798;9.928;2024-03-22T10:14:30;99845.16;;;16.37;51.19
19624;BME280;9959;49.798;9.928;2024-03-22T10:16:57;99852.56;;;16.87;50.24
19624;BME280;9959;49.798;9.928;2024-03-22T10:19:24;99853.44;;;17.09;49.06
19624;BME280;9959;49.798;9.928;2024-03-22T10:22:04;99846.56;;;16.56;50.32
19624;BME280;9959;49.798;9.928;2024-03-22T10:24:34;99854.59;;;17.13;49.15
19624;BME280;9959;49.798;9.928;2024-03-22T10:27:00;99845.25;;;17.65;48.17
19624;BME280;9959;49.798;9.928;2024-03-22T10:29:26;99834.25;;;18.57;46.11
19624;BME280;9959;49.798;9.928;2024-03-22T10:31:52;99832.81;;;17.96;47.63
19624;BME280;9959;49.798;9.928;2024-03-22T10:34:21;99832.91;;;18.06;47.42
19624;BME280;9959;49.798;9.928;2024-03-22T10:36:47;99835.06;;;17.77;47.57
19624;BME280;9959;49.798;9.928;2024-03-22T10:39:16;99827.03;;;18.73;46.04
19624;BME280;9959;49.798;9.928;2024-03-22T10:41:46;99824.41;;;18.24;46.88
19624;BME280;9959;49.798;9.928;2024-03-22T10:44:14;99814.09;;;17.77;47.69
19624;BME280;9959;49.798;9.928;2024-03-22T10:46:46;99825.63;;;17.07;49.04
19624;BME280;9959;49.798;9.928;2024-03-22T10:49:20;99818.53;;;17.23;48.97
19624;BME280;9959;49.798;9.928;2024-03-22T10:51:50;99808.84;;;16.94;49.64
19624;BME280;9959;49.798;9.928;2024-03-22T10:54:19;99808.81;;;17.10;49.67
19624;BME280;9959;49.798;9.928;2024-03-22T10:56:47;99803.28;;;17.05;50.38
19624;BME280;9959;49.798;9.928;2024-03-22T10:59:22;99800.28;;;16.85;50.50
19624;BME280;9959;49.798;9.928;2024-03-22T11:01:49;99800.25;;;16.51;52.16
19624;BME280;9959;49.798;9.928;2024-03-22T11:04:20;99795.13;;;16.38;55.23
19624;BME280;9959;49.798;9.928;2024-03-22T11:06:49;99795.53;;;16.30;55.50
19624;BME280;9959;49.798;9.928;2024-03-22T11:09:21;99788.97;;;15.98;58.60
19624;BME280;9959;49.798;9.928;2024-03-22T11:11:47;99776.59;;;15.62;59.83
19624;BME280;9959;49.798;9.928;2024-03-22T11:14:13;99771.56;;;16.27;59.76
19624;BME280;9959;49.798;9.928;2024-03-22T11:16:43;99766.03;;;16.55;60.60
19624;BME280;9959;49.798;9.928;2024-03-22T11:19:10;99759.03;;;17.80;56.50
19624;BME280;9959;49.798;9.928;2024-03-22T11:21:36;99758.88;;;18.19;53.05
19624;BME280;9959;49.798;9.928;2024-03-22T11:24:02;99751.03;;;18.22;50.54
19624;BME280;9959;49.798;9.928;2024-03-22T11:26:28;99749.47;;;19.63;48.20
19624;BME280;9959;49.798;9.928;2024-03-22T11:28:54;99741.06;;;19.22;47.60
19624;BME280;9959;49.798;9.928;2024-03-22T11:31:22;99735.13;;;18.46;48.02
19624;BME280;9959;49.798;9.928;2024-03-22T11:33:53;99733.09;;;18.64;47.80
19624;BME280;9959;49.798;9.928;2024-03-22T11:36:20;99725.78;;;19.21;45.78
19624;BME280;9959;49.798;9.928;2024-03-22T11:38:46;99719.16;;;19.07;46.09
19624;BME280;9959;49.798;9.928;2024-03-22T11:41:18;99721.56;;;18.56;46.84
19624;BME280;9959;49.798;9.928;2024-03-22T11:43:46;99706.03;;;19.77;45.25
19624;BME280;9959;49.798;9.928;2024-03-22T11:46:17;99721.09;;;18.65;46.06
19624;BME280;9959;49.798;9.928;2024-03-22T11:48:43;99705.06;;;17.77;48.43
19624;BME280;9959;49.798;9.928;2024-03-22T11:51:10;99699.69;;;19.51;45.47
19624;BME280;9959;49.798;9.928;2024-03-22T11:53:36;99693.97;;;19.57;45.29
19624;BME280;9959;49.798;9.928;2024-03-22T11:56:03;99700.44;;;18.79;46.90
19624;BME280;9959;49.798;9.928;2024-03-22T11:58:30;99688.41;;;19.42;45.67
19624;BME280;9959;49.798;9.928;2024-03-22T12:00:57;99676.59;;;19.21;45.20
19624;BME280;9959;49.798;9.928;2024-03-22T12:03:23;99678.31;;;19.43;44.81
19624;BME280;9959;49.798;9.928;2024-03-22T12:05:50;99675.13;;;19.61;44.59
19624;BME280;9959;49.798;9.928;2024-03-22T12:08:18;99667.84;;;19.19;44.81
19624;BME280;9959;49.798;9.928;2024-03-22T12:10:44;99664.81;;;18.58;45.40
19624;BME280;9959;49.798;9.928;2024-03-22T12:13:11;99659.25;;;18.80;45.97
19624;BME280;9959;49.798;9.928;2024-03-22T12:15:37;99669.94;;;18.97;45.51
19624;BME280;9959;49.798;9.928;2024-03-22T12:18:03;99653.81;;;18.90;45.81
19624;BME280;9959;49.798;9.928;2024-03-22T12:20:30;99663.06;;;18.79;46.09
19624;BME280;9959;49.798;9.928;2024-03-22T12:22:56;99648.59;;;19.72;44.55
19624;BME280;9959;49.798;9.928;2024-03-22T12:25:22;99642.31;;;19.56;44.58
19624;BME280;9959;49.798;9.928;2024-03-22T12:27:48;99635.16;;;19.50;44.52
19624;BME280;9959;49.798;9.928;2024-03-22T12:30:15;99628.06;;;19.39;44.21
19624;BME280;9959;49.798;9.928;2024-03-22T12:32:40;99631.13;;;19.57;44.45
19624;BME280;9959;49.798;9.928;2024-03-22T12:35:07;99625.91;;;19.71;44.22
19624;BME280;9959;49.798;9.928;2024-03-22T12:37:34;99630.84;;;19.64;43.97
19624;BME280;9959;49.798;9.928;2024-03-22T12:40:01;99626.03;;;19.04;44.63
19624;BME280;9959;49.798;9.928;2024-03-22T12:42:28;99617.19;;;19.84;41.72
19624;BME280;9959;49.798;9.928;2024-03-22T12:44:54;99616.66;;;19.92;41.63
19624;BME280;9959;49.798;9.928;2024-03-22T12:47:20;99619.66;;;19.91;41.91
19624;BME280;9959;49.798;9.928;2024-03-22T12:49:46;99612.53;;;19.80;41.82
19624;BME280;9959;49.798;9.928;2024-03-22T12:52:12;99612.81;;;19.83;41.92
19624;BME280;9959;49.798;9.928;2024-03-22T12:54:37;99607.66;;;18.89;43.74
19624;BME280;9959;49.798;9.928;2024-03-22T12:57:03;99605.44;;;18.29;44.94
19624;BME280;9959;49.798;9.928;2024-03-22T12:59:29;99600.19;;;19.37;43.44
19624;BME280;9959;49.798;9.928;2024-03-22T13:01:56;99598.56;;;19.41;43.97